Time;durP1;ratioP1;P1;durP2;ratioP2;P2;SDS_P1;SDS_P2;PMS_P1;PMS_P2;Temp;Humidity;BMP_temperature;BMP_pressure;BME280_temperature;BME280_humidity;BME280_pressure;Samples;Min_cycle;Max_cycle;Signal;HPM_P1;HPM_P2
2022/01/19 06:14:10;;;;;;;;;;;;;;;4.34;100.00;99888.69;4836107;29;19956;-67
2022/01/19 06:16:45;;;;;;;;;;;;;;;4.31;100.00;99894.03;4813582;29;19950;-67
2022/01/19 06:19:14;;;;;;;;;;;;;;;4.26;100.00;99889.44;4812255;29;19957;-67
2022/01/19 06:21:41;;;;;;;;;;;;;;;4.27;100.00;99891.09;4831036;29;19964;-67
2022/01/19 06:24:09;;;;;;;;;;;;;;;4.30;100.00;99890.47;4827839;29;20340;-67
2022/01/19 06:26:38;;;;;;;;;;;;;;;4.28;100.00;99889.16;4829748;29;19950;-67
2022/01/19 06:29:06;;;;;;;;;;;;;;;4.26;100.00;99883.91;4840952;29;19962;-67
2022/01/19 06:31:33;;;;;;;;;;;;;;;4.28;100.00;99883.63;4833719;29;19957;-67
2022/01/19 06:34:03;;;;;;;;;;;;;;;4.37;100.00;99881.69;4821073;29;20088;-67
2022/01/19 06:36:52;;;;;;;;;;;;;;;4.31;100.00;99892.09;4822661;29;20362;-67
2022/01/19 06:39:34;;;;;;;;;;;;;;;4.27;100.00;99888.31;4826316;29;20248;-67
2022/01/19 06:42:07;;;;;;;;;;;;;;;4.27;100.00;99898.56;4821514;29;19960;-67
2022/01/19 06:44:36;;;;;;;;;;;;;;;4.31;100.00;99892.09;4838235;29;19994;-67
2022/01/19 06:47:04;;;;;;;;;;;;;;;4.32;100.00;99888.19;4819333;29;19958;-67
2022/01/19 06:49:31;;;;;;;;;;;;;;;4.28;100.00;99889.94;4837691;29;19962;-67
2022/01/19 06:52:01;;;;;;;;;;;;;;;4.27;100.00;99890.28;4810957;29;19953;-67
2022/01/19 06:54:28;;;;;;;;;;;;;;;4.27;100.00;99891.09;4827176;29;20328;-67
2022/01/19 06:56:56;;;;;;;;;;;;;;;4.32;100.00;99893.72;4811148;29;20271;-67
2022/01/19 06:59:55;;;;;;;;;;;;;;;4.39;100.00;99891.31;4826342;29;20273;-67
2022/01/19 07:02:32;;;;;;;;;;;;;;;4.44;100.00;99896.72;4810262;29;20020;-67
2022/01/19 07:05:04;;;;;;;;;;;;;;;4.46;100.00;99888.06;4819462;29;19957;-67
2022/01/19 07:07:40;;;;;;;;;;;;;;;4.49;100.00;99888.28;4826705;29;20247;-67
2022/01/19 07:10:08;;;;;;;;;;;;;;;4.56;100.00;99888.63;4827093;29;19955;-67
2022/01/19 07:12:37;;;;;;;;;;;;;;;4.52;100.00;99884.84;4819251;29;19971;-67
2022/01/19 07:15:06;;;;;;;;;;;;;;;4.52;100.00;99889.59;4828710;29;20257;-67
2022/01/19 07:17:35;;;;;;;;;;;;;;;4.53;100.00;99891.19;4817132;29;19957;-67
2022/01/19 07:20:03;;;;;;;;;;;;;;;4.55;100.00;99884.22;4810049;29;19957;-67
2022/01/19 07:22:31;;;;;;;;;;;;;;;4.55;100.00;99886.16;4817555;29;19952;-67
2022/01/19 07:25:02;;;;;;;;;;;;;;;4.50;100.00;99902.91;4818339;29;19977;-67
2022/01/19 07:27:29;;;;;;;;;;;;;;;4.47;100.00;99895.25;4827096;29;20278;-67
2022/01/19 07:29:57;;;;;;;;;;;;;;;4.47;100.00;99901.63;4817168;29;19972;-67
2022/01/19 07:32:30;;;;;;;;;;;;;;;4.31;100.00;99905.94;4818648;29;19951;-67
2022/01/19 07:34:58;;;;;;;;;;;;;;;4.24;100.00;99904.75;4826679;29;19955;-67
2022/01/19 07:37:25;;;;;;;;;;;;;;;4.16;100.00;99909.09;4818654;29;20043;-67
2022/01/19 07:39:53;;;;;;;;;;;;;;;4.09;100.00;99908.72;4830671;29;19956;-67
2022/01/19 07:42:21;;;;;;;;;;;;;;;4.06;100.00;99911.31;4823871;29;19961;-67
2022/01/19 07:45:08;;;;;;;;;;;;;;;4.06;100.00;99911.31;4826093;29;19984;-67
2022/01/19 07:48:08;;;;;;;;;;;;;;;4.03;100.00;99921.06;4802421;29;19967;-67
2022/01/19 07:50:45;;;;;;;;;;;;;;;3.94;100.00;99921.00;4833216;29;19961;-67
2022/01/19 07:53:31;;;;;;;;;;;;;;;3.88;100.00;99916.75;4823545;29;19962;-67
2022/01/19 07:56:27;;;;;;;;;;;;;;;3.91;100.00;99912.53;4785032;29;19967;-67
2022/01/19 07:59:31;;;;;;;;;;;;;;;3.88;100.00;99913.97;4795670;29;19961;-67
2022/01/19 08:02:02;;;;;;;;;;;;;;;3.90;100.00;99919.19;4805604;29;19967;-67
2022/01/19 08:04:48;;;;;;;;;;;;;;;3.91;100.00;99912.53;4830287;29;19960;-67
2022/01/19 08:07:19;;;;;;;;;;;;;;;3.95;100.00;99919.88;4822104;29;19955;-67
2022/01/19 08:09:48;;;;;;;;;;;;;;;4.04;100.00;99917.16;4830883;29;19960;-67
2022/01/19 08:12:16;;;;;;;;;;;;;;;4.08;100.00;99915.41;4813931;29;19989;-67
2022/01/19 08:14:45;;;;;;;;;;;;;;;4.18;100.00;99906.81;4829168;29;20214;-67
2022/01/19 08:17:16;;;;;;;;;;;;;;;4.26;100.00;99913.53;4827538;29;19959;-67
2022/01/19 08:19:47;;;;;;;;;;;;;;;4.27;100.00;99899.41;4822386;29;19954;-67
2022/01/19 08:22:15;;;;;;;;;;;;;;;4.36;100.00;99891.13;4826988;29;19962;-67
2022/01/19 08:25:03;;;;;;;;;;;;;;;4.41;100.00;99893.75;4827730;29;19980;-67
2022/01/19 08:27:30;;;;;;;;;;;;;;;4.40;100.00;99898.47;4819848;29;20027;-67
2022/01/19 08:30:01;;;;;;;;;;;;;;;4.43;100.00;99895.06;4822526;29;19958;-67
2022/01/19 08:32:29;;;;;;;;;;;;;;;4.42;100.00;99896.22;4832410;29;20348;-67
2022/01/19 08:35:25;;;;;;;;;;;;;;;4.47;100.00;99898.03;4823198;29;19960;-68
2022/01/19 08:38:11;;;;;;;;;;;;;;;4.45;100.00;99898.34;4839825;29;19966;-67
2022/01/19 08:40:54;;;;;;;;;;;;;;;4.47;100.00;99907.16;4828957;29;19956;-67
2022/01/19 08:43:26;;;;;;;;;;;;;;;4.46;100.00;99902.75;4828701;29;20300;-68
2022/01/19 08:45:54;;;;;;;;;;;;;;;4.46;100.00;99901.94;4828781;29;19955;-68
2022/01/19 08:48:25;;;;;;;;;;;;;;;4.47;100.00;99903.56;4828452;29;20397;-67
2022/01/19 08:51:08;;;;;;;;;;;;;;;4.50;100.00;99898.19;4826872;29;19971;-67
2022/01/19 08:53:46;;;;;;;;;;;;;;;4.53;100.00;99896.75;4821902;29;19960;-68
2022/01/19 08:56:26;;;;;;;;;;;;;;;4.53;100.00;99902.28;4832234;29;19955;-67
2022/01/19 08:58:54;;;;;;;;;;;;;;;4.59;100.00;99901.03;4838343;29;19952;-67
2022/01/19 09:01:21;;;;;;;;;;;;;;;4.56;100.00;99891.41;4828483;29;20741;-67
2022/01/19 09:03:49;;;;;;;;;;;;;;;4.57;100.00;99895.00;4828321;29;19977;-68
2022/01/19 09:06:18;;;;;;;;;;;;;;;4.60;100.00;99892.38;4836555;29;19978;-67
2022/01/19 09:08:45;;;;;;;;;;;;;;;4.69;100.00;99883.28;4829845;29;20383;-67
2022/01/19 09:11:13;;;;;;;;;;;;;;;4.75;100.00;99890.31;4830449;29;20039;-67
2022/01/19 09:13:40;;;;;;;;;;;;;;;4.81;100.00;99892.63;4833595;29;20351;-67
2022/01/19 09:16:07;;;;;;;;;;;;;;;4.83;100.00;99892.28;4827689;29;19962;-67
2022/01/19 09:18:35;;;;;;;;;;;;;;;4.87;100.00;99882.19;4830425;29;19958;-67
2022/01/19 09:21:02;;;;;;;;;;;;;;;4.91;100.00;99878.47;4829968;29;19958;-67
2022/01/19 09:23:30;;;;;;;;;;;;;;;5.02;100.00;99884.50;4831270;29;20025;-67
2022/01/19 09:25:58;;;;;;;;;;;;;;;5.04;100.00;99885.00;4830162;29;19971;-67
2022/01/19 09:28:25;;;;;;;;;;;;;;;5.11;100.00;99886.16;4831902;29;19967;-68
2022/01/19 09:30:52;;;;;;;;;;;;;;;5.15;100.00;99889.13;4829505;29;19959;-67
2022/01/19 09:33:22;;;;;;;;;;;;;;;5.17;100.00;99871.03;4827387;29;20368;-67
2022/01/19 09:36:43;;;;;;;;;;;;;;;5.20;100.00;99875.09;4830210;29;19957;-67
2022/01/19 09:38:38;;;;;;;;;;;;;;;5.28;100.00;99872.31;4817363;29;20034;-68
2022/01/19 09:41:07;;;;;;;;;;;;;;;5.35;100.00;99869.09;4831287;29;19974;-67
2022/01/19 09:43:35;;;;;;;;;;;;;;;5.44;100.00;99869.06;4834056;29;19959;-67
2022/01/19 09:46:03;;;;;;;;;;;;;;;5.50;100.00;99863.03;4827944;29;19981;-67
2022/01/19 09:48:30;;;;;;;;;;;;;;;5.64;100.00;99860.09;4829007;29;19954;-67
2022/01/19 09:50:58;;;;;;;;;;;;;;;5.64;100.00;99860.94;4826158;29;19971;-68
2022/01/19 09:53:26;;;;;;;;;;;;;;;5.72;100.00;99867.63;4832295;29;19958;-68
2022/01/19 09:55:53;;;;;;;;;;;;;;;5.80;100.00;99859.28;4831634;29;20582;-67
2022/01/19 09:58:22;;;;;;;;;;;;;;;5.83;100.00;99860.56;4829334;29;19954;-67
2022/01/19 10:00:50;;;;;;;;;;;;;;;5.88;100.00;99852.09;4833098;29;19952;-67
2022/01/19 10:03:21;;;;;;;;;;;;;;;5.92;100.00;99847.53;4830121;29;20367;-67
2022/01/19 10:05:56;;;;;;;;;;;;;;;5.90;100.00;99839.53;4832633;29;19974;-67
2022/01/19 10:08:28;;;;;;;;;;;;;;;5.94;100.00;99845.25;4828107;29;19958;-67
2022/01/19 10:11:08;;;;;;;;;;;;;;;5.88;100.00;99835.44;4840186;29;20266;-67
2022/01/19 10:19:19;;;;;;;;;;;;;;;6.06;100.00;99833.47;4842552;29;20321;-67
2022/01/19 10:21:55;;;;;;;;;;;;;;;6.11;100.00;99828.56;4842468;29;19962;-67
2022/01/19 10:24:35;;;;;;;;;;;;;;;6.18;100.00;99825.25;4843112;29;19982;-67
2022/01/19 10:27:21;;;;;;;;;;;;;;;6.16;100.00;99825.56;4838598;29;20388;-67
2022/01/19 10:29:49;;;;;;;;;;;;;;;6.17;100.00;99816.09;4825545;29;19960;-67
2022/01/19 10:32:20;;;;;;;;;;;;;;;6.26;100.00;99816.09;4827127;29;19952;-67
2022/01/19 10:34:47;;;;;;;;;;;;;;;6.36;100.00;99812.91;4834851;29;20558;-67
2022/01/19 10:37:21;;;;;;;;;;;;;;;6.30;100.00;99811.47;4826662;29;19965;-67
2022/01/19 10:39:49;;;;;;;;;;;;;;;6.41;100.00;99808.00;4832715;29;20358;-67
2022/01/19 10:42:19;;;;;;;;;;;;;;;6.43;100.00;99805.69;4833245;29;19954;-67
2022/01/19 10:44:51;;;;;;;;;;;;;;;6.49;100.00;99792.44;4828876;29;19978;-67
2022/01/19 10:47:47;;;;;;;;;;;;;;;6.52;100.00;99789.81;4830330;29;20532;-67
2022/01/19 10:50:21;;;;;;;;;;;;;;;6.64;100.00;99783.53;4829076;29;19957;-68
2022/01/19 10:52:49;;;;;;;;;;;;;;;6.69;100.00;99785.28;4831016;29;19962;-68
2022/01/19 10:55:19;;;;;;;;;;;;;;;6.74;100.00;99785.09;4829102;29;19949;-68
2022/01/19 10:57:47;;;;;;;;;;;;;;;6.79;100.00;99788.50;4825286;29;20455;-68
2022/01/19 11:00:15;;;;;;;;;;;;;;;6.84;100.00;99768.84;4827315;29;19954;-68
2022/01/19 11:02:43;;;;;;;;;;;;;;;6.92;100.00;99767.97;4830929;29;19956;-68
2022/01/19 11:05:10;;;;;;;;;;;;;;;7.00;100.00;99763.47;4821345;29;19970;-68
2022/01/19 11:07:38;;;;;;;;;;;;;;;7.06;100.00;99756.59;4824348;29;19971;-68
2022/01/19 11:10:17;;;;;;;;;;;;;;;7.12;100.00;99756.03;4824908;29;19951;-67
2022/01/19 11:12:49;;;;;;;;;;;;;;;7.18;100.00;99749.13;4822867;29;20282;-67
2022/01/19 11:15:18;;;;;;;;;;;;;;;7.23;100.00;99748.91;4833808;29;19954;-67
2022/01/19 11:17:46;;;;;;;;;;;;;;;7.28;100.00;99740.34;4831657;29;19958;-68
2022/01/19 11:20:15;;;;;;;;;;;;;;;7.37;100.00;99736.66;4841714;29;19955;-68
2022/01/19 11:22:51;;;;;;;;;;;;;;;7.43;100.00;99738.91;4834158;29;20683;-68
2022/01/19 11:25:31;;;;;;;;;;;;;;;7.44;100.00;99728.56;4828245;29;19966;-67
2022/01/19 11:28:10;;;;;;;;;;;;;;;7.48;100.00;99724.78;4830279;29;19955;-68
2022/01/19 11:30:44;;;;;;;;;;;;;;;7.48;100.00;99713.66;4832400;29;19957;-67
2022/01/19 11:33:14;;;;;;;;;;;;;;;7.60;100.00;99715.66;4820470;29;20542;-68
2022/01/19 11:35:43;;;;;;;;;;;;;;;7.59;100.00;99711.22;4832236;29;19969;-67
2022/01/19 11:38:31;;;;;;;;;;;;;;;7.59;100.00;99712.03;4826514;29;19960;-67
2022/01/19 11:40:59;;;;;;;;;;;;;;;7.68;100.00;99701.63;4816121;29;20549;-67
2022/01/19 11:43:29;;;;;;;;;;;;;;;7.73;100.00;99697.78;4824763;29;19949;-67
2022/01/19 11:45:57;;;;;;;;;;;;;;;7.81;100.00;99696.91;4823577;29;20353;-67
2022/01/19 11:48:27;;;;;;;;;;;;;;;7.81;100.00;99689.34;4835530;29;20035;-67
2022/01/19 11:51:15;;;;;;;;;;;;;;;7.85;100.00;99687.50;4833827;29;20058;-67
2022/01/19 11:54:17;;;;;;;;;;;;;;;7.91;100.00;99677.78;4827832;29;19961;-68
2022/01/19 11:57:02;;;;;;;;;;;;;;;8.01;100.00;99675.69;4778758;30;19958;-67
2022/01/19 11:59:30;;;;;;;;;;;;;;;7.93;100.00;99671.84;4822971;29;19962;-67
2022/01/19 12:02:16;;;;;;;;;;;;;;;7.94;100.00;99673.47;4835021;29;19958;-67
2022/01/19 12:04:44;;;;;;;;;;;;;;;7.97;100.00;99664.44;4835645;29;19949;-68
2022/01/19 12:07:33;;;;;;;;;;;;;;;8.05;100.00;99659.88;4828303;29;19979;-68
2022/01/19 12:10:03;;;;;;;;;;;;;;;8.08;100.00;99653.63;4829318;29;19953;-67
2022/01/19 12:12:35;;;;;;;;;;;;;;;8.10;100.00;99648.50;4832455;29;19990;-67
2022/01/19 12:15:07;;;;;;;;;;;;;;;8.30;100.00;99634.50;4839143;29;19956;-68
2022/01/19 12:17:54;;;;;;;;;;;;;;;8.32;100.00;99626.59;4841285;29;20017;-68
2022/01/19 12:20:40;;;;;;;;;;;;;;;8.28;100.00;99622.06;4840101;29;19957;-67
2022/01/19 12:23:24;;;;;;;;;;;;;;;8.13;100.00;99614.38;4840871;29;19959;-68
2022/01/19 12:25:52;;;;;;;;;;;;;;;7.89;100.00;99609.66;4840445;29;19970;-68
2022/01/19 12:28:38;;;;;;;;;;;;;;;7.73;100.00;99603.13;4838696;29;19961;-68
2022/01/19 12:31:24;;;;;;;;;;;;;;;7.75;100.00;99596.06;4843044;29;19958;-68
2022/01/19 12:34:07;;;;;;;;;;;;;;;7.86;100.00;99580.53;4846220;29;19955;-68
2022/01/19 12:36:48;;;;;;;;;;;;;;;7.79;100.00;99571.13;4844360;29;19979;-68
2022/01/19 12:39:24;;;;;;;;;;;;;;;7.84;100.00;99577.28;4836323;29;19963;-67
2022/01/19 12:42:18;;;;;;;;;;;;;;;7.87;100.00;99567.41;4837112;29;19960;-67
2022/01/19 12:44:55;;;;;;;;;;;;;;;7.96;100.00;99556.97;4837201;29;20348;-67
2022/01/19 12:47:28;;;;;;;;;;;;;;;7.92;100.00;99551.25;4836573;29;20283;-67
2022/01/19 12:50:15;;;;;;;;;;;;;;;7.87;100.00;99550.72;4826220;29;19958;-70
2022/01/19 12:52:44;;;;;;;;;;;;;;;7.79;100.00;99537.72;4832912;29;19958;-70
2022/01/19 12:55:14;;;;;;;;;;;;;;;7.80;100.00;99533.78;4837798;29;19962;-72
2022/01/19 12:57:41;;;;;;;;;;;;;;;7.90;100.00;99520.19;4836680;29;19965;-71
2022/01/19 13:00:10;;;;;;;;;;;;;;;7.83;100.00;99522.75;4837908;29;19954;-71
2022/01/19 13:02:38;;;;;;;;;;;;;;;7.79;100.00;99521.81;4833792;29;20262;-70
2022/01/19 13:05:10;;;;;;;;;;;;;;;7.72;100.00;99516.03;4815223;29;19954;-71
2022/01/19 13:07:38;;;;;;;;;;;;;;;7.77;100.00;99520.56;4837907;29;19977;-69
2022/01/19 13:10:12;;;;;;;;;;;;;;;7.69;100.00;99502.81;4837797;29;20652;-70
2022/01/19 13:12:56;;;;;;;;;;;;;;;7.78;100.00;99494.31;4832445;29;19973;-67
2022/01/19 13:15:24;;;;;;;;;;;;;;;7.81;100.00;99491.66;4837150;29;19964;-68
2022/01/19 13:17:52;;;;;;;;;;;;;;;7.83;100.00;99483.75;4838600;29;19952;-68
2022/01/19 13:20:21;;;;;;;;;;;;;;;7.86;100.00;99482.25;4838746;29;19951;-67
2022/01/19 13:22:55;;;;;;;;;;;;;;;7.89;100.00;99474.00;4829526;29;20356;-68
2022/01/19 13:25:25;;;;;;;;;;;;;;;7.85;100.00;99467.50;4840379;29;19949;-68
2022/01/19 13:27:55;;;;;;;;;;;;;;;7.76;100.00;99464.06;4841045;29;19958;-68
2022/01/19 13:30:24;;;;;;;;;;;;;;;7.75;100.00;99467.19;4827819;29;19951;-68
2022/01/19 13:32:52;;;;;;;;;;;;;;;7.67;100.00;99459.78;4840867;29;19959;-68
2022/01/19 13:35:20;;;;;;;;;;;;;;;7.76;100.00;99452.09;4838080;29;19951;-68
2022/01/19 13:37:54;;;;;;;;;;;;;;;7.68;100.00;99451.06;4838619;29;20329;-68
2022/01/19 13:40:24;;;;;;;;;;;;;;;7.70;100.00;99447.94;4839723;29;19971;-67
2022/01/19 13:42:56;;;;;;;;;;;;;;;7.76;100.00;99443.75;4840801;29;19953;-67
2022/01/19 13:45:31;;;;;;;;;;;;;;;7.73;100.00;99447.22;4840794;29;19977;-67
2022/01/19 13:48:06;;;;;;;;;;;;;;;7.59;100.00;99441.22;4838328;29;19954;-67
2022/01/19 13:50:33;;;;;;;;;;;;;;;7.50;100.00;99438.59;4835434;29;19958;-67
2022/01/19 13:53:01;;;;;;;;;;;;;;;7.26;100.00;99436.63;4840120;29;19957;-67
2022/01/19 13:55:29;;;;;;;;;;;;;;;7.17;100.00;99429.56;4840730;29;19962;-68
2022/01/19 13:58:13;;;;;;;;;;;;;;;7.19;100.00;99430.81;4839373;29;19953;-67
2022/01/19 14:00:50;;;;;;;;;;;;;;;7.22;100.00;99437.66;4840197;29;19956;-67
2022/01/19 14:03:18;;;;;;;;;;;;;;;7.12;100.00;99435.34;4840027;29;19957;-67
2022/01/19 14:05:51;;;;;;;;;;;;;;;7.12;100.00;99432.56;4840366;29;19957;-67
2022/01/19 14:08:27;;;;;;;;;;;;;;;7.10;100.00;99427.34;4839774;29;19959;-67
2022/01/19 14:10:55;;;;;;;;;;;;;;;7.03;100.00;99423.53;4840047;29;19960;-67
2022/01/19 14:13:32;;;;;;;;;;;;;;;7.01;100.00;99418.31;4839834;29;20292;-67
2022/01/19 14:16:19;;;;;;;;;;;;;;;6.89;100.00;99423.06;4839935;29;19961;-67
2022/01/19 14:19:06;;;;;;;;;;;;;;;6.95;100.00;99411.34;4839771;29;19982;-68
2022/01/19 14:21:33;;;;;;;;;;;;;;;6.98;100.00;99419.00;4839740;29;19956;-67
2022/01/19 14:24:01;;;;;;;;;;;;;;;6.98;100.00;99415.41;4838672;29;19951;-67
2022/01/19 14:26:29;;;;;;;;;;;;;;;6.97;100.00;99405.47;4838692;29;20074;-67
2022/01/19 14:29:14;;;;;;;;;;;;;;;6.92;100.00;99403.69;4837262;29;19949;-67
2022/01/19 14:31:49;;;;;;;;;;;;;;;6.89;100.00;99398.84;4825903;29;19963;-67
2022/01/19 14:34:32;;;;;;;;;;;;;;;6.90;100.00;99396.88;4839823;29;19959;-68
2022/01/19 14:37:16;;;;;;;;;;;;;;;6.87;100.00;99398.38;4839357;29;19986;-67
2022/01/19 14:40:03;;;;;;;;;;;;;;;6.85;100.00;99392.34;4840474;29;19951;-67
2022/01/19 14:42:34;;;;;;;;;;;;;;;6.84;100.00;99389.94;4829951;29;19965;-67
2022/01/19 14:45:18;;;;;;;;;;;;;;;6.81;100.00;99385.88;4836652;29;19960;-68
2022/01/19 14:47:45;;;;;;;;;;;;;;;6.82;100.00;99378.34;4838409;29;19973;-68
2022/01/19 14:50:24;;;;;;;;;;;;;;;6.79;100.00;99385.41;4836594;29;19969;-68
2022/01/19 14:52:53;;;;;;;;;;;;;;;6.78;100.00;99377.41;4839135;29;19955;-68
2022/01/19 14:55:21;;;;;;;;;;;;;;;6.72;100.00;99371.28;4838611;29;19958;-67
2022/01/19 14:57:49;;;;;;;;;;;;;;;6.67;100.00;99365.94;4836483;29;19959;-67
2022/01/19 15:00:18;;;;;;;;;;;;;;;6.66;100.00;99364.31;4838259;29;20627;-67
2022/01/19 15:02:49;;;;;;;;;;;;;;;6.64;100.00;99355.53;4838374;29;19964;-67
2022/01/19 15:05:18;;;;;;;;;;;;;;;6.61;100.00;99358.97;4837551;29;19952;-67
2022/01/19 15:07:46;;;;;;;;;;;;;;;6.58;100.00;99357.69;4838614;29;19976;-67
2022/01/19 15:10:14;;;;;;;;;;;;;;;6.58;100.00;99357.69;4838429;29;19955;-67
2022/01/19 15:12:42;;;;;;;;;;;;;;;6.51;100.00;99346.34;4838555;29;19985;-67
2022/01/19 15:15:09;;;;;;;;;;;;;;;6.53;100.00;99349.59;4843706;29;19957;-67
2022/01/19 15:17:37;;;;;;;;;;;;;;;6.52;100.00;99350.75;4832813;29;19951;-67
2022/01/19 15:20:06;;;;;;;;;;;;;;;6.44;100.00;99350.84;4827753;29;19949;-68
2022/01/19 15:22:33;;;;;;;;;;;;;;;6.46;100.00;99337.44;4831734;29;19953;-67
2022/01/19 15:25:02;;;;;;;;;;;;;;;6.44;100.00;99342.53;4839792;29;19951;-67
2022/01/19 15:27:29;;;;;;;;;;;;;;;6.44;100.00;99329.44;4825722;29;19982;-68
2022/01/19 15:29:56;;;;;;;;;;;;;;;6.45;100.00;99331.09;4831921;29;20376;-67
2022/01/19 15:32:24;;;;;;;;;;;;;;;6.37;100.00;99331.16;4829708;29;19959;-67
2022/01/19 15:34:51;;;;;;;;;;;;;;;6.28;100.00;99324.91;4825589;29;20339;-67
2022/01/19 15:37:19;;;;;;;;;;;;;;;6.31;100.00;99333.34;4825749;29;20896;-67
2022/01/19 15:39:49;;;;;;;;;;;;;;;6.18;100.00;99322.56;4840707;29;19955;-67
2022/01/19 15:42:16;;;;;;;;;;;;;;;6.08;100.00;99314.69;4836866;29;19951;-67
2022/01/19 15:44:43;;;;;;;;;;;;;;;6.02;100.00;99322.41;4835703;29;20359;-67
2022/01/19 15:47:11;;;;;;;;;;;;;;;5.90;100.00;99323.19;4829653;29;19975;-67
2022/01/19 15:49:39;;;;;;;;;;;;;;;5.83;100.00;99322.91;4837238;29;19959;-68
2022/01/19 15:52:06;;;;;;;;;;;;;;;5.78;100.00;99325.91;4824151;29;19961;-67
2022/01/19 15:54:34;;;;;;;;;;;;;;;5.67;100.00;99316.34;4834505;29;19955;-67
2022/01/19 15:57:02;;;;;;;;;;;;;;;5.54;100.00;99316.66;4839516;29;19960;-67
2022/01/19 15:59:30;;;;;;;;;;;;;;;5.43;100.00;99312.69;4839342;29;19958;-67
2022/01/19 16:01:57;;;;;;;;;;;;;;;5.33;100.00;99311.13;4840667;29;20242;-67
2022/01/19 16:04:25;;;;;;;;;;;;;;;5.28;100.00;99314.91;4827935;29;19965;-67
2022/01/19 16:06:54;;;;;;;;;;;;;;;5.21;100.00;99319.38;4841461;29;19972;-67
2022/01/19 16:09:22;;;;;;;;;;;;;;;5.21;100.00;99311.06;4831284;29;20237;-67
2022/01/19 16:11:52;;;;;;;;;;;;;;;5.15;100.00;99312.41;4846551;29;19973;-67
2022/01/19 16:14:19;;;;;;;;;;;;;;;5.03;100.00;99313.16;4833594;29;19962;-67
2022/01/19 16:16:46;;;;;;;;;;;;;;;4.97;100.00;99308.13;4845711;29;20366;-67
2022/01/19 16:19:14;;;;;;;;;;;;;;;4.89;100.00;99306.25;4843357;29;19960;-67
2022/01/19 16:21:45;;;;;;;;;;;;;;;4.82;100.00;99306.75;4842618;29;19961;-67
2022/01/19 16:26:59;;;;;;;;;;;;;;;4.78;100.00;99300.28;4843665;29;19962;-67
2022/01/19 16:29:26;;;;;;;;;;;;;;;4.72;100.00;99301.59;4836308;29;19951;-67
2022/01/19 16:31:57;;;;;;;;;;;;;;;4.68;100.00;99308.97;4841124;29;20270;-68
2022/01/19 16:34:25;;;;;;;;;;;;;;;4.64;100.00;99308.84;4844519;29;19967;-68
2022/01/19 16:36:53;;;;;;;;;;;;;;;4.61;100.00;99312.28;4847007;29;19969;-67
2022/01/19 16:39:20;;;;;;;;;;;;;;;4.69;100.00;99304.25;4835588;29;19964;-67
2022/01/19 16:41:48;;;;;;;;;;;;;;;4.73;100.00;99303.25;4833590;29;20256;-67
2022/01/19 16:44:16;;;;;;;;;;;;;;;4.71;100.00;99301.94;4844503;29;19955;-67
2022/01/19 16:46:44;;;;;;;;;;;;;;;4.73;100.00;99308.78;4835429;29;19962;-67
2022/01/19 16:49:19;;;;;;;;;;;;;;;4.72;100.00;99306.34;4829937;29;19978;-67
2022/01/19 16:51:47;;;;;;;;;;;;;;;4.69;100.00;99295.94;4840621;29;19959;-67
2022/01/19 16:54:14;;;;;;;;;;;;;;;4.66;100.00;99297.41;4833447;29;19959;-67
2022/01/19 16:56:43;;;;;;;;;;;;;;;4.64;100.00;99305.25;4832810;29;19963;-67
2022/01/19 16:59:11;;;;;;;;;;;;;;;4.59;100.00;99300.72;4839100;29;19967;-67
2022/01/19 17:01:39;;;;;;;;;;;;;;;4.52;100.00;99303.19;4841542;29;19952;-67
2022/01/19 17:04:06;;;;;;;;;;;;;;;4.52;100.00;99302.41;4843425;29;19957;-67
2022/01/19 17:06:34;;;;;;;;;;;;;;;4.45;100.00;99299.34;4828502;29;20461;-67
2022/01/19 17:09:01;;;;;;;;;;;;;;;4.39;100.00;99298.69;4830420;29;19967;-68
2022/01/19 17:11:29;;;;;;;;;;;;;;;4.35;100.00;99296.94;4840565;29;19977;-67
2022/01/19 17:14:04;;;;;;;;;;;;;;;4.34;100.00;99296.13;4838591;29;19968;-67
2022/01/19 17:17:42;;;;;;;;;;;;;;;4.31;100.00;99284.88;4836108;29;19956;-67
2022/01/19 17:19:30;;;;;;;;;;;;;;;4.31;100.00;99282.13;4822133;29;19954;-67
2022/01/19 17:21:58;;;;;;;;;;;;;;;4.35;100.00;99280.31;4837934;29;20317;-67
2022/01/19 17:24:26;;;;;;;;;;;;;;;4.38;100.00;99285.16;4837994;29;19954;-67
2022/01/19 17:26:54;;;;;;;;;;;;;;;4.38;100.00;99288.75;4832698;29;19954;-67
2022/01/19 17:29:23;;;;;;;;;;;;;;;4.41;100.00;99288.09;4831403;29;20357;-68
2022/01/19 17:31:50;;;;;;;;;;;;;;;4.40;100.00;99283.69;4832310;29;19960;-68
2022/01/19 17:34:18;;;;;;;;;;;;;;;4.39;100.00;99276.56;4834628;29;20242;-67
2022/01/19 17:36:45;;;;;;;;;;;;;;;4.40;100.00;99277.38;4832947;29;19960;-67
2022/01/19 17:39:13;;;;;;;;;;;;;;;4.36;100.00;99279.97;4825156;29;19954;-67
2022/01/19 17:41:40;;;;;;;;;;;;;;;4.35;100.00;99274.78;4824046;29;19955;-67
2022/01/19 17:44:08;;;;;;;;;;;;;;;4.34;100.00;99273.16;4823571;29;19956;-67
2022/01/19 17:50:03;;;;;;;;;;;;;;;4.35;100.00;99275.56;4814233;29;19961;-67
2022/01/19 17:52:30;;;;;;;;;;;;;;;4.34;100.00;99268.44;4821132;29;19957;-67
2022/01/19 17:54:58;;;;;;;;;;;;;;;4.33;100.00;99268.75;4829589;29;20368;-67
2022/01/19 17:57:26;;;;;;;;;;;;;;;4.34;100.00;99267.63;4825747;29;19954;-67
2022/01/19 17:59:54;;;;;;;;;;;;;;;4.36;100.00;99273.63;4830163;29;19959;-67
2022/01/19 18:02:22;;;;;;;;;;;;;;;4.34;100.00;99273.97;4819817;29;20253;-67
2022/01/19 18:04:50;;;;;;;;;;;;;;;4.32;100.00;99267.13;4834347;29;19962;-67
2022/01/19 18:07:17;;;;;;;;;;;;;;;4.26;100.00;99266.50;4836249;29;19960;-67
2022/01/19 18:09:48;;;;;;;;;;;;;;;4.28;100.00;99263.44;4832609;29;20272;-67
2022/01/19 18:12:15;;;;;;;;;;;;;;;4.29;100.00;99271.38;4840399;29;19971;-67
2022/01/19 18:14:44;;;;;;;;;;;;;;;4.25;100.00;99258.53;4846415;29;20406;-67
2022/01/19 18:17:11;;;;;;;;;;;;;;;4.24;100.00;99260.50;4834881;29;19966;-67
2022/01/19 18:19:38;;;;;;;;;;;;;;;4.19;100.00;99255.16;4832564;29;20342;-67
2022/01/19 18:22:09;;;;;;;;;;;;;;;4.16;100.00;99249.47;4831499;29;19956;-67
2022/01/19 18:24:38;;;;;;;;;;;;;;;4.16;100.00;99247.50;4832018;29;19951;-67
2022/01/19 18:27:07;;;;;;;;;;;;;;;4.17;100.00;99249.13;4839024;29;19951;-67
2022/01/19 18:29:35;;;;;;;;;;;;;;;4.12;100.00;99248.50;4823062;29;19971;-68
2022/01/19 18:32:03;;;;;;;;;;;;;;;4.12;100.00;99243.78;4843796;29;20334;-67
2022/01/19 18:34:30;;;;;;;;;;;;;;;4.10;100.00;99248.84;4836677;29;19956;-69
2022/01/19 18:36:58;;;;;;;;;;;;;;;4.08;100.00;99239.25;4828873;29;19960;-70
2022/01/19 18:39:25;;;;;;;;;;;;;;;4.08;100.00;99237.31;4824503;29;19967;-70
2022/01/19 18:41:55;;;;;;;;;;;;;;;4.07;100.00;99238.44;4842070;29;19949;-69
2022/01/19 18:44:22;;;;;;;;;;;;;;;4.04;100.00;99236.31;4833010;29;19961;-68
2022/01/19 18:46:50;;;;;;;;;;;;;;;4.02;100.00;99233.06;4843562;29;19960;-67
2022/01/19 18:49:17;;;;;;;;;;;;;;;3.97;100.00;99230.50;4828826;29;20378;-67
2022/01/19 18:51:44;;;;;;;;;;;;;;;3.91;100.00;99229.06;4833870;29;19964;-67
2022/01/19 18:54:14;;;;;;;;;;;;;;;3.93;100.00;99224.84;4834269;29;19952;-67
2022/01/19 18:56:42;;;;;;;;;;;;;;;3.89;100.00;99228.56;4831725;29;19956;-67
2022/01/19 18:59:09;;;;;;;;;;;;;;;3.91;100.00;99220.78;4831833;29;19965;-67
2022/01/19 19:01:36;;;;;;;;;;;;;;;3.90;100.00;99221.91;4815150;29;19955;-68
2022/01/19 19:04:04;;;;;;;;;;;;;;;3.94;100.00;99229.19;4827081;29;19976;-67
2022/01/19 19:06:31;;;;;;;;;;;;;;;3.99;100.00;99222.66;4836631;29;19971;-68
2022/01/19 19:08:59;;;;;;;;;;;;;;;4.03;100.00;99229.19;4829089;29;19976;-67
2022/01/19 19:11:45;;;;;;;;;;;;;;;4.13;100.00;99225.22;4829154;29;19967;-67
2022/01/19 19:14:13;;;;;;;;;;;;;;;4.16;100.00;99222.59;4837580;29;20313;-67
2022/01/19 19:16:40;;;;;;;;;;;;;;;4.14;100.00;99211.03;4845030;29;19966;-67
2022/01/19 19:19:09;;;;;;;;;;;;;;;4.11;100.00;99206.16;4826717;29;19956;-67
2022/01/19 19:26:18;;;;;;;;;;;;;;;4.07;100.00;99212.72;4830232;29;19957;-68
2022/01/19 19:28:46;;;;;;;;;;;;;;;4.26;100.00;99207.56;4827467;29;19977;-67
2022/01/19 19:31:13;;;;;;;;;;;;;;;4.27;100.00;99206.41;4828630;29;20001;-69
2022/01/19 19:33:41;;;;;;;;;;;;;;;4.12;100.00;99213.34;4831337;29;19966;-68
2022/01/19 19:36:08;;;;;;;;;;;;;;;4.12;100.00;99212.53;4832374;29;19958;-69
2022/01/19 19:38:37;;;;;;;;;;;;;;;4.12;100.00;99202.28;4826928;29;19953;-69
2022/01/19 19:41:06;;;;;;;;;;;;;;;4.18;100.00;99211.19;4825363;29;19957;-69